Time;durP1;ratioP1;P1;durP2;ratioP2;P2;SDS_P1;SDS_P2;PMS_P1;PMS_P2;Temp;Humidity;BMP_temperature;BMP_pressure;BME280_temperature;BME280_humidity;BME280_pressure;Samples;Min_cycle;Max_cycle;Signal;HPM_P1;HPM_P2
2022/03/26 00:01:03;;;;;;;39.05;26.30;;;;;;;10.62;48.88;100406.16;4985995;28;20223;-83
2022/03/26 00:03:30;;;;;;;43.22;27.35;;;;;;;10.59;48.94;100400.94;4983710;28;20194;-84
2022/03/26 00:05:59;;;;;;;39.88;26.83;;;;;;;10.44;49.38;100397.09;4984900;28;20222;-84
2022/03/26 00:08:25;;;;;;;44.55;26.73;;;;;;;10.32;49.38;100409.28;4977524;28;20670;-84
2022/03/26 00:10:52;;;;;;;39.58;24.70;;;;;;;10.30;49.76;100408.47;4984770;28;20198;-85
2022/03/26 00:13:20;;;;;;;44.85;27.58;;;;;;;10.06;50.20;100410.38;4985057;28;20198;-84
2022/03/26 00:15:46;;;;;;;41.90;27.40;;;;;;;10.05;50.47;100411.34;4984459;28;20223;-85
2022/03/26 00:18:15;;;;;;;46.28;27.42;;;;;;;9.94;51.06;100409.09;4987445;28;20195;-84
2022/03/26 00:20:42;;;;;;;37.00;24.90;;;;;;;9.93;51.07;100407.34;4987951;28;20228;-84
2022/03/26 00:23:10;;;;;;;37.40;25.83;;;;;;;9.98;50.80;100402.66;4986164;28;20206;-84
2022/03/26 00:25:37;;;;;;;35.78;23.45;;;;;;;9.90;50.04;100404.78;4983945;28;20191;-84
2022/03/26 00:28:04;;;;;;;46.05;26.52;;;;;;;10.01;49.90;100407.03;4984026;28;20210;-84
2022/03/26 00:30:31;;;;;;;40.95;25.45;;;;;;;9.94;50.21;100410.91;4981698;28;20191;-84
2022/03/26 00:32:58;;;;;;;36.50;23.30;;;;;;;9.96;49.88;100420.66;4986529;28;20209;-84
2022/03/26 00:35:24;;;;;;;40.00;24.30;;;;;;;9.90;50.03;100414.66;4990796;28;20206;-83
2022/03/26 00:37:52;;;;;;;38.50;24.08;;;;;;;9.91;49.81;100414.63;4987234;28;20195;-84
2022/03/26 00:40:20;;;;;;;35.95;22.50;;;;;;;9.96;49.11;100417.09;4988560;28;20196;-84
2022/03/26 00:42:47;;;;;;;42.55;23.80;;;;;;;9.91;49.00;100413.75;4979275;28;20192;-85
2022/03/26 00:45:14;;;;;;;37.75;26.08;;;;;;;9.87;49.73;100413.00;4983978;28;20199;-84
2022/03/26 00:47:41;;;;;;;42.20;23.88;;;;;;;9.69;49.73;100414.63;4991529;28;20189;-84
2022/03/26 00:50:10;;;;;;;32.72;21.35;;;;;;;9.64;49.75;100413.09;4983363;28;20195;-82
2022/03/26 00:52:37;;;;;;;35.55;23.55;;;;;;;9.72;49.49;100417.22;4988117;28;20642;-84
2022/03/26 00:55:04;;;;;;;34.80;21.73;;;;;;;9.74;48.82;100406.38;4985107;28;20217;-84
2022/03/26 00:57:32;;;;;;;37.95;23.40;;;;;;;9.66;49.71;100414.78;4990109;28;20192;-84
2022/03/26 00:59:59;;;;;;;39.75;23.02;;;;;;;9.69;49.66;100422.69;4982465;28;20222;-82
2022/03/26 01:02:25;;;;;;;36.95;22.50;;;;;;;9.67;49.71;100421.03;4993731;28;20550;-83
2022/03/26 01:04:52;;;;;;;38.38;22.77;;;;;;;9.66;49.38;100425.53;4985079;28;20225;-84
2022/03/26 01:07:19;;;;;;;32.88;21.45;;;;;;;9.72;49.96;100422.59;4983297;28;20694;-83
2022/03/26 01:09:45;;;;;;;33.75;21.48;;;;;;;9.59;50.47;100424.03;4978989;28;20199;-83
2022/03/26 01:12:13;;;;;;;36.80;22.17;;;;;;;9.45;50.70;100421.00;4988927;28;20190;-84
2022/03/26 01:14:41;;;;;;;37.88;22.13;;;;;;;9.38;51.06;100421.28;4994380;28;20273;-84
2022/03/26 01:17:07;;;;;;;37.15;23.73;;;;;;;9.30;51.27;100423.38;4982131;28;20212;-83
2022/03/26 01:19:34;;;;;;;31.88;21.75;;;;;;;9.47;51.25;100424.50;4979187;28;20214;-84
2022/03/26 01:22:01;;;;;;;37.72;23.95;;;;;;;9.46;51.23;100420.09;4989881;28;20191;-83
2022/03/26 01:24:28;;;;;;;32.55;22.17;;;;;;;9.45;51.12;100426.38;4982782;28;20202;-84
2022/03/26 01:26:55;;;;;;;36.20;21.95;;;;;;;9.33;51.46;100420.56;4983669;28;20271;-83
2022/03/26 01:29:21;;;;;;;34.90;22.48;;;;;;;9.26;51.48;100424.44;4983350;28;20200;-83
2022/03/26 01:31:49;;;;;;;33.95;22.02;;;;;;;9.48;50.75;100415.53;4984925;28;20199;-83
2022/03/26 01:34:17;;;;;;;33.63;21.30;;;;;;;9.42;51.19;100421.16;4980559;28;20198;-84
2022/03/26 01:36:47;;;;;;;35.45;20.75;;;;;;;9.37;51.29;100421.34;4984043;28;20735;-82
2022/03/26 01:39:13;;;;;;;33.50;21.73;;;;;;;9.42;51.04;100418.47;4980905;28;20206;-83
2022/03/26 01:41:40;;;;;;;29.70;20.23;;;;;;;9.46;50.75;100417.41;4984577;28;20218;-84
2022/03/26 01:44:11;;;;;;;37.28;21.20;;;;;;;9.39;51.21;100420.34;4985697;28;20198;-85
2022/03/26 01:46:45;;;;;;;33.53;21.80;;;;;;;9.33;51.77;100409.81;4991935;28;20191;-83
2022/03/26 01:49:13;;;;;;;33.97;21.48;;;;;;;9.17;51.99;100419.44;4986968;28;20202;-83
2022/03/26 01:51:40;;;;;;;32.45;19.33;;;;;;;9.43;51.44;100410.34;4982446;28;20205;-84
2022/03/26 01:54:07;;;;;;;35.22;21.48;;;;;;;9.34;51.62;100410.72;4980448;28;20193;-85
2022/03/26 01:56:34;;;;;;;36.03;21.77;;;;;;;9.31;51.65;100409.00;4983372;28;20214;-84
2022/03/26 01:59:03;;;;;;;29.27;20.80;;;;;;;9.12;52.42;100418.75;4986014;28;20205;-83
2022/03/26 02:01:31;;;;;;;31.67;19.95;;;;;;;8.98;52.64;100416.59;4985772;28;20288;-83
2022/03/26 02:03:58;;;;;;;31.42;20.98;;;;;;;9.07;52.49;100416.25;4988816;28;20225;-84
2022/03/26 02:06:29;;;;;;;29.17;20.90;;;;;;;8.94;52.78;100414.97;4982423;28;20281;-83
2022/03/26 02:08:56;;;;;;;35.40;21.90;;;;;;;8.78;53.32;100411.97;4982666;28;20195;-85
2022/03/26 02:11:23;;;;;;;35.22;20.80;;;;;;;8.71;54.10;100410.47;4985740;28;20191;-83
2022/03/26 02:13:52;;;;;;;32.08;20.10;;;;;;;8.74;53.47;100415.72;4989549;28;20556;-85
2022/03/26 02:16:20;;;;;;;33.88;21.02;;;;;;;8.69;54.05;100409.66;4982189;28;20607;-84
2022/03/26 02:18:47;;;;;;;35.38;20.52;;;;;;;8.56;54.69;100412.75;4978744;28;20193;-83
2022/03/26 02:21:15;;;;;;;32.72;20.40;;;;;;;8.64;54.89;100408.91;4990391;28;20201;-84
2022/03/26 02:23:41;;;;;;;32.58;20.48;;;;;;;8.64;54.82;100408.91;4985582;28;20546;-83
2022/03/26 02:26:08;;;;;;;38.80;21.58;;;;;;;8.64;55.07;100407.13;4989350;28;20544;-83
2022/03/26 02:28:35;;;;;;;34.30;20.83;;;;;;;8.52;55.51;100410.25;4982998;28;20209;-84
2022/03/26 02:31:02;;;;;;;33.95;21.20;;;;;;;8.62;55.22;100409.00;4983223;28;20198;-84
2022/03/26 02:33:28;;;;;;;31.02;19.92;;;;;;;8.55;55.15;100412.84;4989746;28;20196;-83
2022/03/26 02:35:55;;;;;;;37.15;22.23;;;;;;;8.43;55.72;100407.91;4981527;28;20219;-84
2022/03/26 02:38:24;;;;;;;32.15;20.02;;;;;;;8.50;55.37;100420.16;4982256;28;20204;-84
2022/03/26 02:40:51;;;;;;;30.27;20.02;;;;;;;8.50;55.05;100421.06;4986932;28;20196;-84
2022/03/26 02:43:18;;;;;;;31.45;20.48;;;;;;;8.42;55.57;100414.22;4991279;28;20205;-84
2022/03/26 02:45:45;;;;;;;30.33;19.25;;;;;;;8.49;55.46;100408.56;4985121;28;20276;-82
2022/03/26 02:48:12;;;;;;;32.08;20.00;;;;;;;8.45;55.72;100411.41;4984722;28;20642;-82
2022/03/26 02:50:39;;;;;;;30.30;19.92;;;;;;;8.33;56.29;100407.34;4974429;28;20206;-84
2022/03/26 02:53:06;;;;;;;30.70;19.45;;;;;;;8.32;55.96;100402.88;4976824;28;20287;-84
2022/03/26 02:55:35;;;;;;;32.38;19.63;;;;;;;8.28;56.09;100404.81;4977809;28;20205;-84
2022/03/26 02:58:01;;;;;;;31.98;20.50;;;;;;;8.20;56.91;100404.22;4985348;28;20637;-84
2022/03/26 03:00:28;;;;;;;34.95;20.95;;;;;;;8.17;57.01;100404.31;4982839;28;20550;-84
2022/03/26 03:02:55;;;;;;;33.60;19.13;;;;;;;8.18;57.09;100392.66;4982224;28;20292;-85
2022/03/26 03:05:21;;;;;;;37.70;20.75;;;;;;;8.09;57.19;100401.91;4989178;28;20217;-83
2022/03/26 03:07:48;;;;;;;29.88;19.42;;;;;;;8.00;58.41;100402.22;4981718;28;20548;-84
2022/03/26 03:10:16;;;;;;;31.10;19.50;;;;;;;8.04;58.51;100403.00;4983139;28;20542;-84
2022/03/26 03:12:44;;;;;;;34.92;20.25;;;;;;;8.21;57.41;100403.28;4984816;28;20198;-84
2022/03/26 03:15:11;;;;;;;33.13;19.77;;;;;;;8.17;57.82;100403.47;4980806;28;20198;-84
2022/03/26 03:17:38;;;;;;;29.90;19.13;;;;;;;8.06;58.34;100402.00;4993734;28;20201;-84
2022/03/26 03:20:06;;;;;;;30.60;20.17;;;;;;;7.84;59.32;100404.56;4993163;28;20211;-84
2022/03/26 03:22:32;;;;;;;37.65;19.67;;;;;;;7.91;58.68;100399.84;4991958;28;20188;-84
2022/03/26 03:24:59;;;;;;;31.00;20.08;;;;;;;7.94;58.22;100405.13;4977557;28;20210;-84
2022/03/26 03:27:25;;;;;;;35.05;19.65;;;;;;;7.91;58.65;100399.84;4989246;28;20185;-84
2022/03/26 03:29:53;;;;;;;32.47;20.48;;;;;;;8.06;58.10;100401.16;4981547;28;20620;-84
2022/03/26 03:32:20;;;;;;;31.50;19.50;;;;;;;7.91;58.82;100395.41;4981455;28;20192;-84
2022/03/26 03:34:46;;;;;;;33.00;20.30;;;;;;;7.79;58.98;100393.13;4986992;28;20198;-84
2022/03/26 03:37:13;;;;;;;32.92;19.45;;;;;;;7.90;58.41;100392.75;4991967;28;20234;-84
2022/03/26 03:39:40;;;;;;;34.35;21.23;;;;;;;8.04;57.64;100392.28;4979110;28;20192;-84
2022/03/26 03:42:07;;;;;;;32.38;20.40;;;;;;;8.13;57.21;100395.50;4988554;28;20196;-84
2022/03/26 03:44:33;;;;;;;33.65;19.55;;;;;;;8.10;57.12;100395.63;4979386;28;20191;-84
2022/03/26 03:47:02;;;;;;;30.77;17.83;;;;;;;8.21;56.06;100389.88;4983762;28;20195;-84
2022/03/26 03:49:31;;;;;;;31.58;17.98;;;;;;;8.21;55.92;100388.97;4978468;28;20355;-83
2022/03/26 03:51:58;;;;;;;32.60;18.42;;;;;;;8.20;55.75;100384.56;4990028;28;20188;-84
2022/03/26 03:54:24;;;;;;;28.65;17.83;;;;;;;8.12;56.09;100385.72;4978493;28;20717;-85
2022/03/26 03:56:51;;;;;;;30.85;19.77;;;;;;;8.20;55.82;100382.75;4984051;28;20207;-84
2022/03/26 03:59:18;;;;;;;29.17;18.15;;;;;;;8.28;55.04;100378.00;4985432;28;20195;-84
2022/03/26 04:01:45;;;;;;;28.85;18.08;;;;;;;8.19;55.49;100382.81;4992645;28;20239;-85
2022/03/26 04:04:14;;;;;;;32.00;20.10;;;;;;;7.97;56.11;100377.34;4980455;28;20705;-84
2022/03/26 04:06:41;;;;;;;29.58;18.45;;;;;;;8.00;55.77;100386.13;4987771;28;20184;-84
2022/03/26 04:09:07;;;;;;;36.53;18.45;;;;;;;7.99;55.70;100386.22;4985583;28;20551;-84
2022/03/26 04:11:34;;;;;;;29.67;18.25;;;;;;;8.01;55.56;100379.84;4988447;28;20626;-83
2022/03/26 04:14:00;;;;;;;29.10;18.80;;;;;;;7.68;57.06;100371.16;4985882;28;20286;-83
2022/03/26 04:16:27;;;;;;;35.53;19.45;;;;;;;7.62;57.80;100382.06;4990330;28;20223;-84
2022/03/26 04:18:54;;;;;;;37.08;18.90;;;;;;;7.55;58.71;100385.91;4986947;28;20667;-83
2022/03/26 04:21:21;;;;;;;33.13;18.83;;;;;;;7.52;58.27;100392.25;4986685;28;20703;-83
2022/03/26 04:23:48;;;;;;;33.30;19.10;;;;;;;7.55;58.56;100386.75;4986863;28;20202;-83
2022/03/26 04:26:15;;;;;;;31.63;18.30;;;;;;;7.61;58.32;100389.25;4988093;28;20614;-84
2022/03/26 04:28:41;;;;;;;30.25;19.20;;;;;;;7.66;57.79;100378.38;4986992;28;20194;-83
2022/03/26 04:31:09;;;;;;;27.42;19.00;;;;;;;7.69;57.77;100381.84;4991213;28;20192;-84
2022/03/26 04:33:35;;;;;;;32.63;18.77;;;;;;;7.52;58.47;100382.38;4996144;28;20212;-85
2022/03/26 04:36:02;;;;;;;35.72;20.17;;;;;;;7.41;59.52;100392.56;4987729;28;20219;-83
2022/03/26 04:38:30;;;;;;;34.10;18.98;;;;;;;7.33;59.97;100394.66;4993849;28;20199;-84
2022/03/26 04:40:56;;;;;;;30.50;18.77;;;;;;;7.33;60.30;100397.31;4984632;28;20282;-83
2022/03/26 04:43:23;;;;;;;33.40;19.08;;;;;;;7.22;60.54;100391.44;4984118;28;20192;-85
2022/03/26 04:45:50;;;;;;;35.30;19.95;;;;;;;7.03;61.65;100404.50;4983641;28;20203;-85
2022/03/26 04:48:16;;;;;;;31.95;18.83;;;;;;;6.97;62.15;100399.34;4983932;28;20203;-84
2022/03/26 04:50:43;;;;;;;33.08;18.90;;;;;;;6.89;62.56;100403.13;4986343;28;20278;-83
2022/03/26 04:53:10;;;;;;;33.53;17.67;;;;;;;6.83;63.14;100403.31;4982767;28;20188;-84
2022/03/26 04:55:38;;;;;;;33.33;18.48;;;;;;;6.89;62.76;100397.75;4983837;28;20642;-83
2022/03/26 04:58:04;;;;;;;30.80;19.48;;;;;;;7.07;61.46;100400.81;4978805;28;20200;-84
2022/03/26 05:00:31;;;;;;;35.53;19.55;;;;;;;7.01;62.02;100409.03;4983484;28;20236;-85
2022/03/26 05:02:58;;;;;;;29.58;18.10;;;;;;;6.94;62.81;100415.50;4987739;28;20638;-84
2022/03/26 05:05:25;;;;;;;31.20;19.63;;;;;;;6.71;63.79;100414.38;4987688;28;20196;-84
2022/03/26 05:07:55;;;;;;;27.05;17.88;;;;;;;6.68;64.09;100414.47;4986380;28;20187;-83
2022/03/26 05:10:23;;;;;;;36.40;19.05;;;;;;;6.63;64.71;100419.97;4993658;28;20188;-84
2022/03/26 05:12:52;;;;;;;31.80;18.40;;;;;;;6.49;66.04;100424.84;4978429;28;20191;-83
2022/03/26 05:15:21;;;;;;;28.17;18.40;;;;;;;6.46;66.54;100414.22;4986626;28;20191;-84
2022/03/26 05:17:48;;;;;;;30.40;18.45;;;;;;;6.43;66.36;100420.53;4989381;28;20235;-84
2022/03/26 05:20:15;;;;;;;28.83;17.65;;;;;;;6.57;65.33;100427.28;4976431;28;20596;-83
2022/03/26 05:22:43;;;;;;;31.80;17.58;;;;;;;6.60;64.95;100421.84;4983656;28;20295;-83
2022/03/26 05:25:10;;;;;;;33.38;18.23;;;;;;;6.64;64.82;100426.19;4986350;28;20207;-84
2022/03/26 05:27:37;;;;;;;29.85;18.85;;;;;;;6.55;64.57;100430.00;4983365;28;20275;-83
2022/03/26 05:30:07;;;;;;;32.22;19.48;;;;;;;6.75;63.87;100426.75;4981947;28;20623;-83
2022/03/26 05:32:34;;;;;;;27.50;16.45;;;;;;;6.83;63.21;100427.41;4991298;28;20203;-84
2022/03/26 05:35:00;;;;;;;28.15;17.60;;;;;;;6.87;63.32;100436.22;4983281;28;20235;-83
2022/03/26 05:37:27;;;;;;;33.55;19.55;;;;;;;6.73;63.95;100436.63;4990812;28;20298;-82
2022/03/26 05:39:54;;;;;;;33.00;18.55;;;;;;;6.68;64.28;100436.75;4990066;28;20192;-85
2022/03/26 05:42:20;;;;;;;31.77;18.65;;;;;;;6.64;64.20;100447.59;4979293;28;20196;-84
2022/03/26 05:44:47;;;;;;;36.78;19.15;;;;;;;6.68;64.26;100450.16;4994921;28;20206;-83
2022/03/26 05:47:15;;;;;;;31.83;19.55;;;;;;;6.58;64.43;100454.03;4994949;28;20200;-83
2022/03/26 05:49:41;;;;;;;33.85;18.85;;;;;;;6.46;65.05;100459.69;4993646;28;20194;-83
2022/03/26 05:52:08;;;;;;;32.40;18.58;;;;;;;6.54;65.18;100456.81;4986529;28;20199;-82
2022/03/26 05:54:35;;;;;;;29.08;19.00;;;;;;;6.72;64.14;100469.69;4983464;28;20266;-83
2022/03/26 05:57:02;;;;;;;36.92;19.08;;;;;;;6.63;64.52;100469.94;4987053;28;20230;-82
2022/03/26 05:59:30;;;;;;;32.42;18.95;;;;;;;6.53;65.44;100460.41;4989781;28;20203;-83
2022/03/26 06:01:57;;;;;;;30.95;19.90;;;;;;;6.63;65.33;100465.47;4986959;28;20228;-83
2022/03/26 06:04:27;;;;;;;30.13;19.42;;;;;;;6.68;64.60;100468.00;4991831;28;20210;-84
2022/03/26 06:06:53;;;;;;;32.42;19.35;;;;;;;6.67;65.45;100468.91;4985803;28;20183;-85
2022/03/26 06:09:20;;;;;;;33.92;18.55;;;;;;;6.75;65.21;100469.59;4984466;28;20206;-85
2022/03/26 06:11:46;;;;;;;30.83;19.17;;;;;;;6.85;64.48;100479.13;4980799;28;20184;-85
2022/03/26 06:14:13;;;;;;;33.70;19.23;;;;;;;6.91;64.35;100479.84;4989666;28;20194;-83
2022/03/26 06:16:40;;;;;;;30.48;18.15;;;;;;;7.06;63.69;100482.97;4982007;28;20224;-86
2022/03/26 06:19:06;;;;;;;31.83;17.90;;;;;;;7.24;61.29;100476.19;4981800;28;20198;-85
2022/03/26 06:21:34;;;;;;;36.35;22.08;;;;;;;7.19;61.70;100482.59;4982566;28;20188;-84
2022/03/26 06:24:02;;;;;;;31.55;18.92;;;;;;;7.11;61.35;100477.47;4980685;28;20199;-84
2022/03/26 06:26:29;;;;;;;34.03;18.10;;;;;;;7.16;61.40;100488.91;4985169;28;21516;-85
2022/03/26 06:28:56;;;;;;;30.02;18.15;;;;;;;7.41;59.90;100483.69;4985059;28;20195;-85
2022/03/26 06:31:23;;;;;;;28.30;18.30;;;;;;;7.64;59.04;100480.31;4983310;28;20206;-84
2022/03/26 06:33:50;;;;;;;27.83;16.65;;;;;;;7.90;57.43;100484.81;4980545;28;20184;-85
2022/03/26 06:36:24;;;;;;;37.00;19.95;;;;;;;7.99;56.85;100482.75;4987053;28;20278;-85
2022/03/26 06:38:53;;;;;;;29.65;17.75;;;;;;;8.08;56.40;100493.16;4980047;28;20199;-85
2022/03/26 06:41:23;;;;;;;31.55;17.95;;;;;;;8.07;56.02;100484.25;4989916;28;20207;-85
2022/03/26 06:43:50;;;;;;;30.33;19.80;;;;;;;8.20;55.51;100489.19;4984857;28;20629;-83
2022/03/26 06:46:19;;;;;;;28.35;17.40;;;;;;;8.36;54.56;100479.69;4986149;28;20195;-85
2022/03/26 06:48:45;;;;;;;30.60;16.70;;;;;;;8.57;53.34;100488.84;4987113;28;20541;-85
2022/03/26 06:51:13;;;;;;;33.47;18.20;;;;;;;8.62;52.42;100497.59;4982621;28;20638;-84
2022/03/26 06:53:40;;;;;;;30.10;18.85;;;;;;;8.78;51.69;100487.16;4984928;28;20211;-84
2022/03/26 06:56:08;;;;;;;43.40;18.77;;;;;;;8.84;51.69;100489.63;4985168;28;20665;-85
2022/03/26 06:58:35;;;;;;;32.60;18.67;;;;;;;8.87;51.13;100492.19;4987874;28;20216;-85
2022/03/26 07:01:02;;;;;;;28.83;16.80;;;;;;;9.11;50.67;100489.53;4992333;28;20254;-85
2022/03/26 07:03:29;;;;;;;28.65;17.08;;;;;;;9.30;49.73;100493.28;4992487;28;20683;-86
2022/03/26 07:06:04;;;;;;;26.77;16.85;;;;;;;9.37;49.59;100491.22;4993010;28;20271;-85
2022/03/26 07:08:31;;;;;;;30.02;17.80;;;;;;;9.40;48.82;100489.28;4986867;28;20759;-86
2022/03/26 07:10:59;;;;;;;33.33;18.88;;;;;;;9.52;48.69;100482.56;4997592;28;20186;-86
2022/03/26 07:13:27;;;;;;;24.85;16.60;;;;;;;9.62;48.02;100483.06;4992102;28;20198;-85
2022/03/26 07:15:53;;;;;;;32.20;16.92;;;;;;;9.68;47.93;100476.53;4983839;28;20196;-85
2022/03/26 07:18:20;;;;;;;33.30;18.35;;;;;;;9.72;47.95;100478.16;4999230;28;20213;-85
2022/03/26 07:20:46;;;;;;;33.08;18.85;;;;;;;9.87;47.55;100474.88;4992196;28;20198;-86
2022/03/26 07:23:13;;;;;;;34.75;17.52;;;;;;;9.90;47.57;100476.53;4992494;28;20187;-85
2022/03/26 07:25:39;;;;;;;30.73;17.85;;;;;;;10.00;47.30;100475.25;4992155;28;20292;-84
2022/03/26 07:28:41;;;;;;;31.33;18.90;;;;;;;10.21;46.84;100466.25;4994617;28;20189;-86
2022/03/26 07:31:09;;;;;;;26.80;17.45;;;;;;;10.36;46.86;100466.56;4991484;28;20955;-84
2022/03/26 07:33:35;;;;;;;29.85;17.95;;;;;;;10.41;46.29;100468.09;4992029;28;20320;-84
2022/03/26 07:36:02;;;;;;;30.92;18.20;;;;;;;10.58;46.00;100467.38;4989668;28;20203;-84
2022/03/26 07:38:28;;;;;;;39.17;19.00;;;;;;;10.58;45.80;100472.78;4996627;28;20548;-85
2022/03/26 07:40:57;;;;;;;33.53;17.95;;;;;;;10.62;45.71;100473.50;4996825;28;20535;-84
2022/03/26 07:43:23;;;;;;;28.50;17.17;;;;;;;10.73;45.53;100462.25;5012769;28;20187;-86
2022/03/26 07:45:50;;;;;;;31.80;17.40;;;;;;;10.76;45.23;100459.41;5016573;28;20209;-85
2022/03/26 07:48:18;;;;;;;31.05;18.70;;;;;;;10.89;45.14;100470.50;4998763;28;20195;-85
2022/03/26 07:50:46;;;;;;;30.08;18.42;;;;;;;10.98;45.17;100468.25;4996765;28;20433;-85
2022/03/26 07:53:13;;;;;;;36.78;18.33;;;;;;;11.26;44.77;100465.16;5007493;28;20202;-85
2022/03/26 07:55:52;;;;;;;30.88;18.65;;;;;;;11.57;44.13;100473.59;5016658;28;20190;-85
2022/03/26 07:58:19;;;;;;;28.70;18.05;;;;;;;11.85;43.46;100475.84;5013593;28;20226;-85
2022/03/26 08:00:46;;;;;;;33.08;18.52;;;;;;;11.93;42.98;100484.44;4990522;28;20239;-85
2022/03/26 08:03:13;;;;;;;29.95;18.77;;;;;;;12.15;42.68;100480.69;4977148;28;20188;-84
2022/03/26 08:05:43;;;;;;;30.90;19.10;;;;;;;12.29;42.32;100476.31;4996570;28;20250;-86
2022/03/26 08:08:10;;;;;;;28.60;17.75;;;;;;;12.46;41.80;100482.69;4995315;28;20196;-85
2022/03/26 08:10:37;;;;;;;31.17;18.45;;;;;;;12.56;41.59;100488.47;4996539;28;20278;-86
2022/03/26 08:13:04;;;;;;;36.03;18.10;;;;;;;12.70;41.12;100489.50;4995874;28;20199;-85
2022/03/26 08:15:30;;;;;;;29.00;17.27;;;;;;;12.79;41.06;100487.25;4991578;28;20208;-85
2022/03/26 08:17:58;;;;;;;29.10;18.35;;;;;;;13.05;40.62;100494.84;4976490;28;20298;-85
2022/03/26 08:20:28;;;;;;;29.40;18.23;;;;;;;13.03;40.56;100504.00;4990578;28;20623;-85
2022/03/26 08:22:57;;;;;;;28.95;16.45;;;;;;;13.04;40.15;100495.78;4996403;28;20639;-84
2022/03/26 08:28:18;;;;;;;32.05;19.90;;;;;;;13.03;40.43;100494.06;4960714;28;20195;-85
2022/03/26 08:30:44;;;;;;;27.73;17.48;;;;;;;13.20;40.19;100498.53;4994767;28;20223;-86
2022/03/26 08:33:11;;;;;;;30.55;18.67;;;;;;;12.94;40.17;100492.72;4995691;28;20216;-84
2022/03/26 08:35:39;;;;;;;30.58;17.90;;;;;;;13.14;39.66;100494.34;4995636;28;20550;-85
2022/03/26 08:38:09;;;;;;;27.25;17.45;;;;;;;13.31;39.61;100493.44;4984550;28;20219;-85
2022/03/26 08:40:36;;;;;;;29.13;17.95;;;;;;;13.43;39.10;100496.44;4985578;28;20191;-85
2022/03/26 08:43:02;;;;;;;27.80;17.20;;;;;;;13.49;39.13;100502.38;4995711;28;20188;-85
2022/03/26 08:45:30;;;;;;;27.52;18.40;;;;;;;13.59;38.95;100507.25;4993886;28;20271;-86
2022/03/26 08:47:57;;;;;;;26.77;18.10;;;;;;;13.67;38.69;100510.44;4995551;28;20670;-85
2022/03/26 08:50:24;;;;;;;31.88;18.63;;;;;;;13.60;38.98;100504.47;4995721;28;20191;-84
2022/03/26 08:52:51;;;;;;;35.22;18.83;;;;;;;13.78;38.96;100502.56;4995775;28;20530;-84
2022/03/26 08:55:20;;;;;;;26.92;17.15;;;;;;;13.82;38.77;100504.16;4995140;28;20725;-86
2022/03/26 08:57:46;;;;;;;30.58;18.65;;;;;;;13.93;38.56;100492.72;4995402;28;20247;-86
2022/03/26 09:00:15;;;;;;;31.38;19.30;;;;;;;13.97;38.36;100492.44;4995028;28;20236;-86
2022/03/26 09:02:42;;;;;;;30.73;19.25;;;;;;;14.13;38.09;100491.53;4995598;28;20215;-85
2022/03/26 09:05:09;;;;;;;31.08;18.13;;;;;;;14.11;38.07;100488.91;4994355;28;20202;-84
2022/03/26 09:07:36;;;;;;;33.50;18.98;;;;;;;14.02;37.79;100497.59;4995459;28;20186;-85
2022/03/26 09:10:04;;;;;;;32.75;18.45;;;;;;;13.99;38.10;100486.91;4994845;28;20216;-84
2022/03/26 09:12:32;;;;;;;26.63;17.60;;;;;;;14.07;37.41;100494.63;4994807;28;20617;-85
2022/03/26 09:14:59;;;;;;;31.02;19.42;;;;;;;14.13;37.70;100494.22;4993997;28;20651;-83
2022/03/26 09:17:26;;;;;;;30.10;20.58;;;;;;;14.34;37.07;100495.69;4994653;28;20216;-84
2022/03/26 09:19:53;;;;;;;27.77;16.58;;;;;;;14.39;37.08;100490.84;4995137;28;20185;-84
2022/03/26 09:22:19;;;;;;;29.83;18.50;;;;;;;14.39;36.86;100492.69;4995176;28;20200;-83
2022/03/26 09:24:46;;;;;;;31.00;19.95;;;;;;;14.54;36.37;100482.75;4994090;28;20206;-83
2022/03/26 09:27:12;;;;;;;29.63;18.75;;;;;;;14.69;36.19;100491.84;4996028;28;20203;-82
2022/03/26 09:29:40;;;;;;;27.67;17.50;;;;;;;14.70;35.83;100497.19;4996336;28;20223;-80
2022/03/26 09:32:08;;;;;;;30.52;18.88;;;;;;;14.77;35.86;100489.53;4996475;28;20693;-81
2022/03/26 09:34:34;;;;;;;29.83;19.05;;;;;;;14.84;35.79;100487.31;4995271;28;20199;-84
2022/03/26 09:37:01;;;;;;;27.80;17.67;;;;;;;14.78;35.86;100500.28;4994792;28;20206;-82
2022/03/26 09:39:28;;;;;;;35.75;20.20;;;;;;;14.82;35.93;100494.69;4995337;28;20214;-82
2022/03/26 09:41:55;;;;;;;29.73;18.00;;;;;;;14.80;35.74;100495.63;4994532;28;20196;-84
2022/03/26 09:44:22;;;;;;;35.28;21.60;;;;;;;14.96;35.75;100498.25;4998013;28;20184;-81
2022/03/26 09:46:50;;;;;;;33.03;19.90;;;;;;;15.14;36.35;100492.66;4998578;28;20184;-80
2022/03/26 09:49:17;;;;;;;35.95;19.88;;;;;;;15.30;35.41;100500.72;4995204;28;20202;-80
2022/03/26 09:51:44;;;;;;;31.70;19.23;;;;;;;15.35;35.50;100504.88;4995319;28;20625;-80
2022/03/26 09:54:15;;;;;;;35.55;21.65;;;;;;;15.42;35.30;100498.09;4981504;28;20275;-81
2022/03/26 09:56:43;;;;;;;28.02;19.27;;;;;;;15.63;35.27;100508.53;4976663;28;20191;-80
2022/03/26 09:59:09;;;;;;;36.08;19.48;;;;;;;15.71;34.94;100498.06;4977286;28;20241;-81
2022/03/26 10:01:36;;;;;;;33.58;20.33;;;;;;;15.76;34.82;100497.75;4977797;28;20314;-80
2022/03/26 10:04:11;;;;;;;31.63;20.27;;;;;;;15.78;35.06;100493.09;4991571;28;20202;-80
2022/03/26 10:06:38;;;;;;;31.88;19.67;;;;;;;15.95;34.75;100501.03;4996651;28;20202;-81
2022/03/26 10:09:05;;;;;;;34.63;20.80;;;;;;;15.93;34.44;100500.25;4996993;28;20314;-80
2022/03/26 10:11:33;;;;;;;30.73;20.45;;;;;;;16.05;34.54;100494.03;4996414;28;20275;-81
2022/03/26 10:14:00;;;;;;;30.05;20.58;;;;;;;16.20;34.01;100492.09;4996200;28;20203;-82
2022/03/26 10:16:27;;;;;;;34.47;21.05;;;;;;;16.24;34.15;100495.50;4997730;28;20212;-80
2022/03/26 10:18:58;;;;;;;30.63;20.10;;;;;;;16.57;33.92;100495.00;4997801;28;20313;-80
2022/03/26 10:21:27;;;;;;;34.50;20.95;;;;;;;16.47;34.16;100489.34;4997122;28;20231;-79
2022/03/26 10:23:55;;;;;;;31.80;21.20;;;;;;;16.44;33.74;100484.13;4995110;28;20238;-81
2022/03/26 10:26:23;;;;;;;29.98;21.73;;;;;;;16.48;33.81;100479.34;4997811;28;20204;-80
2022/03/26 10:28:51;;;;;;;32.30;21.55;;;;;;;16.63;33.77;100481.00;4999382;28;20187;-80
2022/03/26 10:34:07;;;;;;;34.35;22.23;;;;;;;16.56;33.99;100489.72;4999612;28;20190;-81
2022/03/26 10:36:37;;;;;;;32.03;20.70;;;;;;;16.68;33.85;100486.13;4999198;28;20192;-80
2022/03/26 10:39:05;;;;;;;35.45;22.15;;;;;;;16.69;33.54;100485.16;4995887;28;20207;-81
2022/03/26 10:41:33;;;;;;;36.80;21.33;;;;;;;16.38;34.19;100478.25;4997436;28;20195;-81
2022/03/26 10:44:08;;;;;;;36.47;21.60;;;;;;;16.64;33.76;100484.59;4997397;28;20195;-81
2022/03/26 10:46:47;;;;;;;33.47;21.35;;;;;;;16.65;33.84;100484.50;4996552;28;20187;-81
2022/03/26 10:49:14;;;;;;;35.85;23.33;;;;;;;16.92;33.82;100480.00;4996924;28;20226;-81
2022/03/26 10:51:42;;;;;;;37.85;20.92;;;;;;;16.96;33.29;100476.94;4998239;28;20279;-81
2022/03/26 10:54:11;;;;;;;34.92;20.98;;;;;;;16.85;33.51;100479.56;4999840;28;20188;-80
2022/03/26 10:56:39;;;;;;;33.95;21.05;;;;;;;16.90;33.51;100471.94;4997152;28;20539;-82
2022/03/26 10:59:06;;;;;;;35.55;22.45;;;;;;;16.87;33.67;100475.75;4999299;28;20239;-81
2022/03/26 11:01:34;;;;;;;32.90;21.90;;;;;;;16.98;33.41;100472.28;4996829;28;20238;-81
2022/03/26 11:04:02;;;;;;;33.33;21.88;;;;;;;16.98;33.36;100465.94;4997106;28;20587;-81
2022/03/26 11:06:29;;;;;;;33.83;22.52;;;;;;;17.38;32.88;100463.06;5002717;28;20206;-81
2022/03/26 11:09:01;;;;;;;42.45;24.67;;;;;;;17.35;33.00;100472.34;5003978;28;20183;-80
2022/03/26 11:11:28;;;;;;;32.50;22.40;;;;;;;17.60;32.36;100468.69;5002300;28;20187;-81
2022/03/26 11:14:03;;;;;;;34.95;24.05;;;;;;;17.66;32.13;100457.34;5007362;28;20606;-80
2022/03/26 11:16:41;;;;;;;35.03;23.55;;;;;;;17.43;31.93;100467.19;5004173;28;20191;-81
2022/03/26 11:19:19;;;;;;;34.95;23.85;;;;;;;17.55;31.89;100465.44;5007189;28;20238;-80
2022/03/26 11:22:02;;;;;;;37.15;25.17;;;;;;;17.66;31.90;100456.47;5001488;28;20225;-81